Flight Track Log - Related Links

Times and Time Zones

All times are in EDT time to prevent confusion due to time zone crossing. See the DAL2352 flight status page for this flight to view local times or setup timezone preferences in your user account.

Time Position Orientation Groundspeed Altitude Reporting Facility
EDT Latitude Longitude Course Direction KTS MPH feet Rate Location/Type
Fri 06:19:54 AM 42.7297 -73.8081 180° South 134 154 1,600  Level Boston Center
Fri 06:20:43 AM 42.7003 -73.8300 209° Southwest 192 221 2,700 1,899 Climbing Boston Center
Fri 06:22:13 AM 42.7342 -73.9467 292° West 245 282 6,000 2,680 Climbing Boston Center
Fri 06:23:00 AM 42.4338 -74.2419 198° South  Level Estimated
Fri 06:23:13 AM 42.8042 -74.0106 326° Northwest 269 310 9,400  Level Boston Center
Fri 06:24:00 AM 42.3548 -74.3511 200° South  Level Estimated
Fri 06:24:13 AM 42.8319 -74.1106 291° West 275 316 11,000  Level Boston Center
Fri 06:25:00 AM 42.2756 -74.4601 180° South  Level Estimated
Fri 06:25:13 AM 42.8361 -74.2550 272° West 339 390 12,200  Level Boston Center
Fri 06:26:13 AM 42.7881 -74.3808 243° Southwest 352 405 14,300 2,150 Climbing Boston Center
Fri 06:27:13 AM 42.6953 -74.4486 208° Southwest 361 415 16,500 2,300 Climbing Boston Center
Fri 06:28:13 AM 42.5858 -74.3831 156° South 378 435 18,900 2,000 Climbing Boston Center
Fri 06:29:13 AM 42.4978 -74.3042 147° Southeast 378 435 20,500 1,600 Climbing Boston Center
Fri 06:30:13 AM 42.3972 -74.2000 143° Southeast 415 478 22,100 1,550 Climbing Boston Center
Fri 06:31:13 AM 42.2819 -74.0986 147° Southeast 431 496 23,600 1,967 Climbing Boston Center
Fri 06:33:13 AM 42.0597 -74.0425 169° South 422 486 28,000 1,933 Climbing Boston Center
Fri 06:34:13 AM 41.9408 -74.0533 184° South 422 486 29,400 1,500 Climbing Boston Center
Fri 06:35:13 AM 41.8239 -74.0614 183° South 422 486 31,000 1,250 Climbing Boston Center
Fri 06:36:13 AM 41.7008 -74.0667 182° South 417 480 31,900 911 Climbing Boston Center
Fri 06:38:24 AM 41.4503 -74.0897 184° South 423 487 33,900 625 Climbing New York Center
Fri 06:39:25 AM 41.3583 -74.1708 214° Southwest 388 447 33,900 50 Level New York Center
Fri 06:40:24 AM 41.2789 -74.2578 219° Southwest 404 465 34,000 50 Climbing New York Center
Fri 06:41:24 AM 41.1967 -74.3583 223° Southwest 404 465 34,000  Level New York Center
Fri 06:42:25 AM 41.1183 -74.4644 226° Southwest 404 465 34,000  Level New York Center
Fri 06:43:26 AM 41.0361 -74.5644 223° Southwest 404 465 34,000  Level New York Center
Fri 06:44:26 AM 40.9536 -74.6642 222° Southwest 404 465 34,000  Level New York Center
Fri 06:45:25 AM 40.8731 -74.7694 225° Southwest 404 465 34,000  Level New York Center
Fri 06:46:26 AM 40.7928 -74.8661 222° Southwest 404 465 34,000  Level New York Center
Fri 06:47:24 AM 40.7122 -74.9653 223° Southwest 404 465 34,000  Level New York Center
Fri 06:48:25 AM 40.6314 -75.0642 223° Southwest 404 465 34,000  Level New York Center
Fri 06:49:26 AM 40.5506 -75.1656 224° Southwest 404 465 34,000  Level New York Center
Fri 06:50:24 AM 40.4739 -75.2644 224° Southwest 399 459 34,000  Level New York Center
Fri 06:51:26 AM 40.3911 -75.3600 221° Southwest 399 459 34,000  Level New York Center
Fri 06:52:24 AM 40.3142 -75.4583 224° Southwest 394 453 34,000  Level New York Center
Fri 06:53:24 AM 40.2306 -75.5722 226° Southwest 399 459 34,000  Level New York Center
Fri 06:54:25 AM 40.1614 -75.6817 230° Southwest 394 453 34,000  Level New York Center
Fri 06:55:25 AM 40.0919 -75.7933 231° Southwest 394 453 34,000  Level New York Center
Fri 06:56:25 AM 40.0225 -75.9050 231° Southwest 399 459 34,000  Level New York Center
Fri 06:57:26 AM 39.9533 -76.0136 230° Southwest 399 459 34,000  Level New York Center
Fri 06:59:33 AM 39.8097 -76.2344 230° Southwest 397 457 34,000  Level Washington Center
Fri 07:00:31 AM 39.7406 -76.3444 231° Southwest 402 463 34,000  Level Washington Center
Fri 07:01:32 AM 39.6731 -76.4569 232° Southwest 402 463 34,000  Level Washington Center
Fri 07:02:33 AM 39.5972 -76.5664 228° Southwest 402 463 34,000  Level Washington Center
Fri 07:03:31 AM 39.5253 -76.6783 230° Southwest 411 473 34,000  Level Washington Center
Fri 07:04:31 AM 39.4514 -76.7928 230° Southwest 411 473 34,000  Level Washington Center
Fri 07:05:32 AM 39.3772 -76.9044 229° Southwest 411 473 34,000  Level Washington Center
Fri 07:06:32 AM 39.3050 -77.0186 231° Southwest 411 473 34,000  Level Washington Center
Fri 07:07:33 AM 39.2308 -77.1322 230° Southwest 411 473 34,000  Level Washington Center
Fri 07:08:31 AM 39.1522 -77.2483 229° Southwest 422 486 34,000  Level Washington Center
Fri 07:09:31 AM 39.0797 -77.3592 230° Southwest 427 491 34,000  Level Washington Center
Fri 07:10:32 AM 39.0072 -77.4694 230° Southwest 427 491 34,000  Level Washington Center
Fri 07:11:32 AM 38.9322 -77.5850 230° Southwest 422 486 34,000  Level Washington Center
Fri 07:12:30 AM 38.8511 -77.7081 230° Southwest 422 486 34,000  Level Washington Center
Fri 07:13:31 AM 38.7717 -77.8256 229° Southwest 428 493 34,000  Level Washington Center
Fri 07:14:32 AM 38.7008 -77.9325 230° Southwest 421 484 34,000  Level Washington Center
Fri 07:15:32 AM 38.6300 -78.0392 230° Southwest 415 478 34,000  Level Washington Center
Fri 07:16:33 AM 38.5547 -78.1508 229° Southwest 409 471 34,000  Level Washington Center
Fri 07:17:31 AM 38.4814 -78.2572 229° Southwest 409 471 34,000  Level Washington Center
Fri 07:18:31 AM 38.4081 -78.3658 229° Southwest 409 471 34,000  Level Washington Center
Fri 07:19:30 AM 38.3325 -78.4794 230° Southwest 409 471 34,000  Level Washington Center
Fri 07:20:31 AM 38.2697 -78.5775 231° Southwest 403 464 34,000  Level Washington Center
Fri 07:21:31 AM 38.1939 -78.6856 228° Southwest 408 470 34,000  Level Washington Center
Fri 07:22:32 AM 38.1158 -78.7983 229° Southwest 414 476 34,000  Level Washington Center
Fri 07:23:33 AM 38.0311 -78.9214 229° Southwest 425 489 34,000  Level Washington Center
Fri 07:24:31 AM 37.9531 -79.0258 227° Southwest 425 489 34,000  Level Washington Center
Fri 07:25:32 AM 37.8564 -79.1214 218° Southwest 425 489 34,000  Level Washington Center
Fri 07:26:33 AM 37.7706 -79.2014 216° Southwest 433 498 34,000  Level Washington Center
Fri 07:27:33 AM 37.6781 -79.2942 218° Southwest 433 498 34,000  Level Washington Center
Fri 07:28:32 AM 37.5828 -79.4075 223° Southwest 427 491 34,000  Level Washington Center
Fri 07:29:31 AM 37.5150 -79.5089 230° Southwest 432 497 34,000  Level Washington Center
Fri 07:30:32 AM 37.4378 -79.6331 232° Southwest 436 502 34,000  Level Washington Center
Fri 07:31:32 AM 37.3692 -79.7444 232° Southwest 436 502 34,000  Level Washington Center
Fri 07:32:33 AM 37.2983 -79.8606 233° Southwest 431 496 34,000  Level Washington Center
Fri 07:33:33 AM 37.2275 -79.9742 232° Southwest 431 496 34,000  Level Washington Center
Fri 07:34:45 AM 37.1325 -80.1286 232° Southwest 433 498 34,000  Level Atlanta Center
Fri 07:35:45 AM 37.0589 -80.2442 231° Southwest 433 498 34,000  Level Atlanta Center
Fri 07:36:45 AM 36.9911 -80.3461 230° Southwest 433 498 34,000  Level Atlanta Center
Fri 07:37:45 AM 36.9108 -80.4536 227° Southwest 427 491 34,000  Level Atlanta Center
Fri 07:38:45 AM 36.8286 -80.5636 227° Southwest 427 491 34,000  Level Atlanta Center
Fri 07:39:45 AM 36.7503 -80.6683 227° Southwest 432 497 34,000  Level Atlanta Center
Fri 07:40:45 AM 36.6597 -80.7911 227° Southwest 432 497 34,000  Level Atlanta Center
Fri 07:41:45 AM 36.5769 -80.9006 227° Southwest 432 497 34,000  Level Atlanta Center
Fri 07:42:45 AM 36.4944 -81.0094 227° Southwest 432 497 34,000  Level Atlanta Center
Fri 07:43:45 AM 36.4094 -81.1211 227° Southwest 432 497 34,000  Level Atlanta Center
Fri 07:44:45 AM 36.3306 -81.2297 228° Southwest 432 497 34,000  Level Atlanta Center
Fri 07:45:45 AM 36.2456 -81.3408 227° Southwest 438 504 34,000  Level Atlanta Center
Fri 07:46:45 AM 36.1603 -81.4517 226° Southwest 438 504 34,000  Level Atlanta Center
Fri 07:47:45 AM 36.0750 -81.5647 227° Southwest 443 510 34,000  Level Atlanta Center
Fri 07:48:45 AM 35.9897 -81.6753 226° Southwest 443 510 34,000  Level Atlanta Center
Fri 07:49:45 AM 35.9019 -81.7881 226° Southwest 450 518 34,000  Level Atlanta Center
Fri 07:50:45 AM 35.8183 -81.8953 226° Southwest 450 518 34,000  Level Atlanta Center
Fri 07:51:45 AM 35.7286 -82.0025 224° Southwest 450 518 34,000  Level Atlanta Center
Fri 07:52:45 AM 35.6383 -82.1069 223° Southwest 456 525 34,000  Level Atlanta Center
Fri 07:53:45 AM 35.5461 -82.2139 223° Southwest 451 519 34,000 -800 Level Atlanta Center
Fri 07:54:45 AM 35.4661 -82.3072 224° Southwest 451 519 32,400 -1,300 Descending Atlanta Center
Fri 07:55:45 AM 35.3736 -82.4136 223° Southwest 456 525 31,400 -1,000 Descending Atlanta Center
Fri 07:56:45 AM 35.2831 -82.5147 222° Southwest 456 525 30,400 -700 Descending Atlanta Center
Fri 07:57:45 AM 35.1947 -82.6181 224° Southwest 446 513 30,000 -200 Descending Atlanta Center
Fri 07:58:45 AM 35.1019 -82.7211 222° Southwest 446 513 30,000  Level Atlanta Center
Fri 07:59:45 AM 35.0092 -82.8217 222° Southwest 451 519 30,000  Level Atlanta Center
Fri 08:00:45 AM 34.9078 -82.9269 220° Southwest 439 505 30,000  Level Atlanta Center
Fri 08:01:45 AM 34.8253 -83.0292 226° Southwest 439 505 30,000 -350 Level Atlanta Center
Fri 08:02:45 AM 34.7342 -83.1289 222° Southwest 439 505 29,300 -1,550 Descending Atlanta Center
Fri 08:03:45 AM 34.6472 -83.2258 223° Southwest 432 497 26,900 -2,500 Descending Atlanta Center
Fri 08:04:45 AM 34.5581 -83.3200 221° Southwest 432 497 24,300 -2,400 Descending Atlanta Center
Fri 08:05:45 AM 34.4772 -83.4139 224° Southwest 419 482 22,100 -2,150 Descending Atlanta Center
Fri 08:06:45 AM 34.3983 -83.5025 223° Southwest 399 459 20,000 -2,300 Descending Atlanta Center
Fri 08:07:45 AM 34.3214 -83.5886 223° Southwest 388 447 17,500 -2,200 Descending Atlanta Center
Fri 08:08:45 AM 34.2550 -83.6642 223° Southwest 372 428 15,600 -2,100 Descending Atlanta Center
Fri 08:09:45 AM 34.1822 -83.7450 223° Southwest 363 418 13,300 -1,850 Descending Atlanta Center
Fri 08:10:45 AM 34.1072 -83.8231 221° Southwest 363 418 11,900 -1,100 Descending Atlanta Center
Fri 08:11:45 AM 34.0425 -83.8933 222° Southwest 334 384 11,100 -960 Descending Atlanta Center
Fri 08:12:50 AM 33.9667 -83.9667 219° Southwest 303 349 9,900 -1,008 Descending Atlanta TRACON
Fri 08:13:50 AM 33.8833 -83.9833 189° South 310 357 9,000 -737 Descending Atlanta TRACON
Fri 08:14:44 AM 33.8167 -83.9833 180° South 305 351 8,500 -526 Descending Atlanta TRACON
Fri 08:15:44 AM 33.7333 -83.9833 180° South 299 344 8,000 -900 Descending Atlanta TRACON
Fri 08:16:44 AM 33.6500 -84.0000 189° South 291 335 6,700 -1,053 Descending Atlanta TRACON
Fri 08:17:38 AM 33.6333 -84.0667 253° West 221 254 6,000 -737 Descending Atlanta TRACON
Fri 08:18:38 AM 33.6333 -84.1500 270° West 218 251 5,300 -700 Descending Atlanta TRACON

Login

Don't have an account? Register now (free) for customized features, flight alerts, and more!